Japan Airlines Virtual Airport Information Service

Kuala Lumpur International Airport

ICAO: WMKK Country: Malaysia
Latitude: 2.74558 Longitude: 101.71
Latest Arrival : MAS1143 (WMKP-WMKK) Latest Departure : MAS6 (WMKK-EDDF)


WX CaptureLIVE
Data provided by noaa.gov | Fetched at 13:41:26

METAR : WMKK 061300Z 15004KT 100V200 9999 FEW017CB 28/23 Q1007 NOSIG

TAF : WMKK 061100Z 0612/0718 14005KT 9999 FEW018 BECMG 0614/0616 VRB02KT FEW030


Runway Data for WMKK
Data provided by openaviationdata.com

Runway ID Mag Var Hdg Length Elevation Surface ILS Freq ILS Id ILS Slope
14L 0 146° 13575 ft 70 ft Concrete 108.5 IEL 3
14R 0 146° 13353 ft 70 ft Concrete 110.7 IWR 3
32L 0 326° 13353 ft 70 ft Concrete 111.9 IWL 3
32R 0 326° 13575 ft 70 ft Concrete 109.1 IER 3

Kuala Lumpur International Airport, Malaysia
Use only for reference purposes



Not for navigational purposes.